createdAt,value
2018-08-28T00:00:22.821Z,79.20
2018-08-28T00:02:54.438Z,79.10
2018-08-28T00:05:26.394Z,79.10
2018-08-28T00:07:58.200Z,79.00
2018-08-28T00:10:30.115Z,78.90
2018-08-28T00:13:01.783Z,78.90
2018-08-28T00:15:33.634Z,78.40
2018-08-28T00:18:05.341Z,78.00
2018-08-28T00:20:37.141Z,78.80
2018-08-28T00:23:09.060Z,79.40
2018-08-28T00:25:40.866Z,80.20
2018-08-28T00:28:12.739Z,79.20
2018-08-28T00:30:44.525Z,79.30
2018-08-28T00:33:16.286Z,79.50
2018-08-28T00:35:48.012Z,79.90
2018-08-28T00:38:19.694Z,79.10
2018-08-28T00:40:51.349Z,78.50
2018-08-28T00:43:23.078Z,78.70
2018-08-28T00:45:54.761Z,79.10
2018-08-28T00:48:26.561Z,79.90
2018-08-28T00:50:58.359Z,80.20
2018-08-28T00:53:30.039Z,80.30
2018-08-28T00:56:01.762Z,80.30
2018-08-28T00:58:33.562Z,80.30
2018-08-28T01:01:05.502Z,80.40
2018-08-28T01:03:37.351Z,80.40
2018-08-28T01:06:09.113Z,80.70
2018-08-28T01:08:40.925Z,81.40
2018-08-28T01:11:12.753Z,80.20
2018-08-28T01:13:44.401Z,79.80
2018-08-28T01:16:16.349Z,79.80
2018-08-28T01:18:48.054Z,79.70
2018-08-28T01:21:19.768Z,79.50
2018-08-28T01:23:51.663Z,79.20
2018-08-28T01:26:23.489Z,79.20
2018-08-28T01:28:55.356Z,79.10
2018-08-28T01:31:27.212Z,79.70
2018-08-28T01:33:59.199Z,79.80
2018-08-28T01:36:31.140Z,80.20
2018-08-28T01:39:03.114Z,79.80
2018-08-28T01:41:34.911Z,79.70
2018-08-28T01:44:06.657Z,79.80
2018-08-28T01:46:38.435Z,80.20
2018-08-28T01:49:10.245Z,80.20
2018-08-28T01:51:42.033Z,80.20
2018-08-28T01:54:13.750Z,80.20
2018-08-28T01:56:45.350Z,79.90
2018-08-28T01:59:17.090Z,79.20
2018-08-28T02:01:48.864Z,79.90
2018-08-28T02:04:20.517Z,80.30
2018-08-28T02:06:52.274Z,79.80
2018-08-28T02:09:24.311Z,79.80
2018-08-28T02:11:56.212Z,79.60
2018-08-28T02:14:27.966Z,79.40
2018-08-28T02:16:59.562Z,79.60
2018-08-28T02:19:31.376Z,79.80
2018-08-28T02:22:03.621Z,79.90
2018-08-28T02:24:35.309Z,80.00
2018-08-28T02:27:07.380Z,80.30
2018-08-28T02:29:39.262Z,80.40
2018-08-28T02:32:10.962Z,80.50
2018-08-28T02:34:42.645Z,80.70
2018-08-28T02:37:14.289Z,80.60
2018-08-28T02:39:46.037Z,80.60
2018-08-28T02:42:17.715Z,80.50
2018-08-28T02:44:49.357Z,80.50
2018-08-28T02:47:21.213Z,80.50
2018-08-28T02:49:52.884Z,80.30
2018-08-28T02:52:24.634Z,80.30
2018-08-28T02:54:56.422Z,80.20
2018-08-28T02:57:28.185Z,80.30
2018-08-28T03:00:00.007Z,80.20
2018-08-28T03:02:31.691Z,80.00
2018-08-28T03:05:03.422Z,79.90
2018-08-28T03:07:35.218Z,79.60
2018-08-28T03:10:06.913Z,79.40
2018-08-28T03:12:38.794Z,79.40
2018-08-28T03:15:10.606Z,79.60
2018-08-28T03:17:42.526Z,79.70
2018-08-28T03:20:14.316Z,79.90
2018-08-28T03:22:46.278Z,79.90
2018-08-28T03:25:17.930Z,79.90
2018-08-28T03:27:49.862Z,79.80
2018-08-28T03:30:21.782Z,79.80
2018-08-28T03:32:53.418Z,79.70
2018-08-28T03:35:25.143Z,79.60
2018-08-28T03:37:56.822Z,79.50
2018-08-28T03:40:28.665Z,79.60
2018-08-28T03:43:00.455Z,79.70
2018-08-28T03:45:32.214Z,79.80
2018-08-28T03:48:03.937Z,79.80
2018-08-28T03:50:35.722Z,80.00
2018-08-28T03:53:07.817Z,80.00
2018-08-28T03:55:39.636Z,79.90
2018-08-28T03:58:11.312Z,80.30
2018-08-28T04:00:43.070Z,79.80
2018-08-28T04:03:14.729Z,80.00
2018-08-28T04:05:46.553Z,80.00
2018-08-28T04:08:18.125Z,80.30
2018-08-28T04:10:50.182Z,80.40
2018-08-28T04:13:21.960Z,80.50
2018-08-28T04:15:53.714Z,80.30
2018-08-28T04:18:25.507Z,80.40
2018-08-28T04:20:57.215Z,80.40
2018-08-28T04:23:29.007Z,80.60
2018-08-28T04:26:00.758Z,80.60
2018-08-28T04:28:32.393Z,80.90
2018-08-28T04:31:04.195Z,81.10
2018-08-28T04:33:35.828Z,81.30
2018-08-28T04:36:07.579Z,81.10
2018-08-28T04:38:39.372Z,81.20
2018-08-28T04:41:11.209Z,81.10
2018-08-28T04:43:42.948Z,81.30
2018-08-28T04:46:14.752Z,81.20
2018-08-28T04:48:46.529Z,81.60
2018-08-28T04:51:18.245Z,81.70
2018-08-28T04:53:50.118Z,81.40
2018-08-28T04:56:21.766Z,81.40
2018-08-28T04:58:53.640Z,81.30
2018-08-28T05:01:25.407Z,81.20
2018-08-28T05:03:57.120Z,81.30
2018-08-28T05:06:28.824Z,81.50
2018-08-28T05:09:00.634Z,81.70
2018-08-28T05:11:32.305Z,82.30
2018-08-28T05:14:03.979Z,82.60
2018-08-28T05:16:35.615Z,83.00
2018-08-28T05:19:07.511Z,83.20
2018-08-28T05:21:39.466Z,83.40
2018-08-28T05:24:11.301Z,83.40
2018-08-28T05:26:43.090Z,83.50
2018-08-28T05:29:15.018Z,83.40
2018-08-28T05:31:46.684Z,83.40
2018-08-28T05:34:18.429Z,83.30
2018-08-28T05:36:50.215Z,84.10
2018-08-28T05:39:21.951Z,83.20
2018-08-28T05:41:53.628Z,83.40
2018-08-28T05:44:25.394Z,83.30
2018-08-28T05:46:57.357Z,83.10
2018-08-28T05:49:29.191Z,83.10
2018-08-28T05:52:00.996Z,83.10
2018-08-28T05:54:32.816Z,83.20
2018-08-28T05:57:04.477Z,83.20
2018-08-28T05:59:36.222Z,83.10
2018-08-28T06:02:07.997Z,83.20
2018-08-28T06:04:39.742Z,83.10
2018-08-28T06:07:11.416Z,83.00
2018-08-28T06:09:43.074Z,82.80
2018-08-28T06:12:14.863Z,82.60
2018-08-28T06:14:46.637Z,82.20
2018-08-28T06:17:18.429Z,82.10
2018-08-28T06:19:50.121Z,82.00
2018-08-28T06:22:21.853Z,81.80
2018-08-28T06:24:53.533Z,81.70
2018-08-28T06:27:25.298Z,81.60
2018-08-28T06:29:57.042Z,81.70
2018-08-28T06:32:28.771Z,81.50
2018-08-28T06:35:00.683Z,81.10
2018-08-28T06:37:32.433Z,80.90
2018-08-28T06:40:04.194Z,80.90
2018-08-28T06:42:36.070Z,80.50
2018-08-28T06:45:08.002Z,79.50
2018-08-28T06:47:39.795Z,79.10
2018-08-28T06:50:11.628Z,78.80
2018-08-28T06:52:43.489Z,78.40
2018-08-28T06:55:15.530Z,78.40
2018-08-28T06:57:47.416Z,78.50
2018-08-28T07:00:19.181Z,78.60
2018-08-28T07:02:51.045Z,78.30
2018-08-28T07:05:23.265Z,78.70
2018-08-28T07:07:55.138Z,78.60
2018-08-28T07:10:26.816Z,78.50
2018-08-28T07:12:58.764Z,78.30
2018-08-28T07:15:30.687Z,78.30
2018-08-28T07:18:02.744Z,78.10
2018-08-28T07:20:34.595Z,77.70
2018-08-28T07:23:06.515Z,77.20
2018-08-28T07:25:38.468Z,76.60
2018-08-28T07:28:10.156Z,75.60
2018-08-28T07:30:41.817Z,74.70
2018-08-28T07:33:13.690Z,74.60
2018-08-28T07:35:45.440Z,74.40
2018-08-28T07:38:17.273Z,73.80
2018-08-28T07:40:48.935Z,73.70
2018-08-28T07:43:20.703Z,73.70
2018-08-28T07:45:52.387Z,73.50
2018-08-28T07:48:24.112Z,73.00
2018-08-28T07:50:56.489Z,72.10
2018-08-28T07:53:28.291Z,71.50
2018-08-28T07:55:59.914Z,71.00
2018-08-28T07:58:31.649Z,70.20
2018-08-28T08:01:03.559Z,70.20
2018-08-28T08:03:35.379Z,70.00
2018-08-28T08:06:07.181Z,70.00
2018-08-28T08:08:38.989Z,69.40
2018-08-28T08:11:10.674Z,68.90
2018-08-28T08:13:42.422Z,66.60
2018-08-28T08:16:14.123Z,65.10
2018-08-28T08:18:46.030Z,63.90
2018-08-28T08:21:17.900Z,63.40
2018-08-28T08:23:49.653Z,62.90
2018-08-28T08:26:21.331Z,61.90
2018-08-28T08:28:53.053Z,61.20
2018-08-28T08:31:24.845Z,60.30
2018-08-28T08:33:56.740Z,61.10
2018-08-28T08:36:28.381Z,60.70
2018-08-28T08:39:00.141Z,61.30
2018-08-28T08:41:31.864Z,62.00
2018-08-28T08:44:03.532Z,62.20
2018-08-28T08:46:35.509Z,62.00
2018-08-28T08:49:07.450Z,60.50
2018-08-28T08:51:39.129Z,59.50
2018-08-28T08:54:11.017Z,58.10
2018-08-28T08:56:42.750Z,57.60
2018-08-28T08:59:14.592Z,57.10
2018-08-28T09:01:46.365Z,56.20
2018-08-28T09:04:18.018Z,55.30
2018-08-28T09:06:50.714Z,55.80
2018-08-28T09:09:22.365Z,56.30
2018-08-28T09:11:54.009Z,56.00
2018-08-28T09:14:25.770Z,54.90
2018-08-28T09:16:57.430Z,54.80
2018-08-28T09:19:29.087Z,55.30
2018-08-28T09:22:00.826Z,55.40
2018-08-28T09:24:32.488Z,55.10
2018-08-28T09:27:04.270Z,54.20
2018-08-28T09:29:36.132Z,53.50
2018-08-28T09:32:08.115Z,53.40
2018-08-28T09:34:40.040Z,52.70
2018-08-28T09:37:11.722Z,52.30
2018-08-28T09:39:43.550Z,51.50
2018-08-28T09:42:15.230Z,51.40
2018-08-28T09:44:46.967Z,51.50
2018-08-28T09:47:18.635Z,52.30
2018-08-28T09:49:50.407Z,51.90
2018-08-28T09:52:22.121Z,51.60
2018-08-28T09:54:54.003Z,50.60
2018-08-28T09:57:25.808Z,50.30
2018-08-28T09:59:57.541Z,49.30
2018-08-28T10:02:29.300Z,48.70
2018-08-28T10:05:01.048Z,48.20
2018-08-28T10:07:32.869Z,48.40
2018-08-28T10:10:04.757Z,48.50
2018-08-28T10:12:36.445Z,48.60
2018-08-28T10:15:08.438Z,47.70
2018-08-28T10:17:40.130Z,47.50
2018-08-28T10:20:12.234Z,47.70
2018-08-28T10:22:43.884Z,47.80
2018-08-28T10:25:15.726Z,48.30
2018-08-28T10:27:47.394Z,47.30
2018-08-28T10:30:19.200Z,46.90
2018-08-28T10:32:51.106Z,47.20
2018-08-28T10:35:22.788Z,47.80
2018-08-28T10:37:54.442Z,47.40
2018-08-28T10:40:26.169Z,47.50
2018-08-28T10:42:57.842Z,47.50
2018-08-28T10:45:29.686Z,47.20
2018-08-28T10:48:01.499Z,46.90
2018-08-28T10:50:33.128Z,46.30
2018-08-28T10:53:04.902Z,45.60
2018-08-28T10:55:36.550Z,45.20
2018-08-28T10:58:08.298Z,44.10
2018-08-28T11:00:40.069Z,44.50
2018-08-28T11:03:11.847Z,45.10
2018-08-28T11:05:43.477Z,44.80
2018-08-28T11:08:15.213Z,44.70
2018-08-28T11:10:46.894Z,44.80
2018-08-28T11:13:18.734Z,43.70
2018-08-28T11:15:50.405Z,42.80
2018-08-28T11:18:22.169Z,43.40
2018-08-28T11:20:53.958Z,43.50
2018-08-28T11:23:25.581Z,43.30
2018-08-28T11:25:57.330Z,43.00
2018-08-28T11:28:29.021Z,42.40
2018-08-28T11:31:00.679Z,42.50
2018-08-28T11:33:32.390Z,42.60
2018-08-28T11:36:04.181Z,41.90
2018-08-28T11:38:36.160Z,41.60
2018-08-28T11:41:08.098Z,41.30
2018-08-28T11:43:39.940Z,41.40
2018-08-28T11:46:11.721Z,41.20
2018-08-28T11:48:43.586Z,40.50
2018-08-28T11:51:15.561Z,40.30
2018-08-28T11:53:47.281Z,40.90
2018-08-28T11:56:18.963Z,40.30
2018-08-28T11:58:50.850Z,40.80
2018-08-28T12:01:22.507Z,41.80
2018-08-28T12:03:54.422Z,41.50
2018-08-28T12:06:26.232Z,41.00
2018-08-28T12:08:57.940Z,40.80
2018-08-28T12:11:29.848Z,40.90
2018-08-28T12:14:01.482Z,40.60
2018-08-28T12:16:33.229Z,40.10
2018-08-28T12:19:05.073Z,40.90
2018-08-28T12:21:36.769Z,39.60
2018-08-28T12:24:08.138Z,38.60
2018-08-28T12:26:39.882Z,38.20
2018-08-28T12:29:11.697Z,39.00
2018-08-28T12:31:43.373Z,39.00
2018-08-28T12:34:15.128Z,38.90
2018-08-28T12:36:46.887Z,38.90
2018-08-28T12:39:18.736Z,38.70
2018-08-28T12:41:50.544Z,38.80
2018-08-28T12:44:22.283Z,38.50
2018-08-28T12:46:54.320Z,38.00
2018-08-28T12:49:26.035Z,37.40
2018-08-28T12:51:57.779Z,37.90
2018-08-28T12:54:29.501Z,38.10
2018-08-28T12:57:01.259Z,37.10
2018-08-28T12:59:33.196Z,37.10
2018-08-28T13:02:05.044Z,37.90
2018-08-28T13:04:36.665Z,37.70
2018-08-28T13:07:08.325Z,37.20
2018-08-28T13:09:40.093Z,37.40
2018-08-28T13:12:11.837Z,37.70
2018-08-28T13:14:43.704Z,37.60
2018-08-28T13:17:15.586Z,37.50
2018-08-28T13:19:47.441Z,37.70
2018-08-28T13:22:19.374Z,37.60
2018-08-28T13:24:51.263Z,37.60
2018-08-28T13:27:23.048Z,38.00
2018-08-28T13:29:54.875Z,38.10
2018-08-28T13:32:26.655Z,37.50
2018-08-28T13:34:58.365Z,37.30
2018-08-28T13:37:30.034Z,37.00
2018-08-28T13:40:01.871Z,37.30
2018-08-28T13:42:33.547Z,37.00
2018-08-28T13:45:05.313Z,36.20
2018-08-28T13:47:37.668Z,35.80
2018-08-28T13:50:09.524Z,36.00
2018-08-28T13:52:41.203Z,36.50
2018-08-28T13:55:12.966Z,36.80
2018-08-28T13:57:44.797Z,36.50
2018-08-28T14:00:16.822Z,36.80
2018-08-28T14:02:48.578Z,35.70
2018-08-28T14:05:20.385Z,36.40
2018-08-28T14:07:52.294Z,37.10
2018-08-28T14:10:24.041Z,36.40
2018-08-28T14:12:55.791Z,36.50
2018-08-28T14:15:27.437Z,36.70
2018-08-28T14:17:59.305Z,35.60
2018-08-28T14:20:31.234Z,36.50
2018-08-28T14:23:03.090Z,36.30
2018-08-28T14:25:34.890Z,36.40
2018-08-28T14:28:06.856Z,36.40
2018-08-28T14:30:38.684Z,36.50
2018-08-28T14:33:10.359Z,36.50
2018-08-28T14:35:42.175Z,36.20
2018-08-28T14:38:14.070Z,35.90
2018-08-28T14:40:45.731Z,36.00
2018-08-28T14:43:17.418Z,35.40
2018-08-28T14:45:49.166Z,35.70
2018-08-28T14:48:20.948Z,35.70
2018-08-28T14:50:52.666Z,35.70
2018-08-28T14:53:24.536Z,36.20
2018-08-28T14:55:56.327Z,36.10
2018-08-28T14:58:28.289Z,36.10
2018-08-28T15:01:00.082Z,35.40
2018-08-28T15:03:31.858Z,36.70
2018-08-28T15:06:03.549Z,36.50
2018-08-28T15:08:35.222Z,36.40
2018-08-28T15:11:07.137Z,35.40
2018-08-28T15:13:38.922Z,35.70
2018-08-28T15:16:10.576Z,36.50
2018-08-28T15:18:42.880Z,36.00
2018-08-28T15:21:14.597Z,36.40
2018-08-28T15:23:46.258Z,37.10
2018-08-28T15:26:18.015Z,36.10
2018-08-28T15:28:49.789Z,36.20
2018-08-28T15:31:21.449Z,36.40
2018-08-28T15:33:53.223Z,36.30
2018-08-28T15:36:25.075Z,36.20
2018-08-28T15:38:56.791Z,36.10
2018-08-28T15:41:28.578Z,36.40
2018-08-28T15:44:00.311Z,36.20
2018-08-28T15:46:31.991Z,36.10
2018-08-28T15:49:03.828Z,35.90
2018-08-28T15:51:35.780Z,36.40
2018-08-28T15:54:07.806Z,36.30
2018-08-28T15:56:39.551Z,36.50
2018-08-28T15:59:11.687Z,36.80
2018-08-28T16:01:43.462Z,36.80
2018-08-28T16:04:21.206Z,36.30
2018-08-28T16:06:53.401Z,35.80
2018-08-28T16:09:25.185Z,36.40
2018-08-28T16:11:56.939Z,36.60
2018-08-28T16:14:28.687Z,36.60
2018-08-28T16:17:00.662Z,36.60
2018-08-28T16:19:32.443Z,36.30
2018-08-28T16:22:04.991Z,36.70
2018-08-28T16:24:36.669Z,37.10
2018-08-28T16:27:08.518Z,37.20
2018-08-28T16:29:40.187Z,37.20
2018-08-28T16:32:11.937Z,36.70
2018-08-28T16:34:43.611Z,36.90
2018-08-28T16:37:15.265Z,37.40
2018-08-28T16:39:46.999Z,37.30
2018-08-28T16:42:18.784Z,37.30
2018-08-28T16:44:50.609Z,37.90
2018-08-28T16:47:22.626Z,37.60
2018-08-28T16:49:54.473Z,37.60
2018-08-28T16:52:26.354Z,38.20
2018-08-28T16:54:58.213Z,38.50
2018-08-28T16:57:30.038Z,38.40
2018-08-28T17:00:01.839Z,38.50
2018-08-28T17:02:33.564Z,38.60
2018-08-28T17:05:05.454Z,39.40
2018-08-28T17:07:37.085Z,39.60
2018-08-28T17:10:09.021Z,39.10
2018-08-28T17:12:40.841Z,38.90
2018-08-28T17:15:12.752Z,38.90
2018-08-28T17:17:44.511Z,39.30
2018-08-28T17:20:16.319Z,40.10
2018-08-28T17:22:48.026Z,40.80
2018-08-28T17:25:19.738Z,41.70
2018-08-28T17:27:51.542Z,41.50
2018-08-28T17:30:23.217Z,41.60
2018-08-28T17:32:54.957Z,41.60
2018-08-28T17:35:26.742Z,42.00
2018-08-28T17:37:58.482Z,42.30
2018-08-28T17:40:30.361Z,42.70
2018-08-28T17:43:02.093Z,43.00
2018-08-28T17:45:33.879Z,43.30
2018-08-28T17:48:05.677Z,43.40
2018-08-28T17:50:37.573Z,43.40
2018-08-28T17:53:09.346Z,43.50
2018-08-28T17:55:41.119Z,43.60
2018-08-28T17:58:12.857Z,43.60
2018-08-28T18:00:44.517Z,43.90
2018-08-28T18:03:16.268Z,44.20
2018-08-28T18:05:47.948Z,44.30
2018-08-28T18:08:19.613Z,44.40
2018-08-28T18:10:51.434Z,44.80
2018-08-28T18:13:23.093Z,45.80
2018-08-28T18:15:54.781Z,46.00
2018-08-28T18:18:26.639Z,46.30
2018-08-28T18:20:58.370Z,46.40
2018-08-28T18:23:30.061Z,46.30
2018-08-28T18:26:01.901Z,46.30
2018-08-28T18:28:33.566Z,46.30
2018-08-28T18:31:05.414Z,46.50
2018-08-28T18:33:37.086Z,46.70
2018-08-28T18:36:08.956Z,47.00
2018-08-28T18:38:40.691Z,47.60
2018-08-28T18:41:12.631Z,48.20
2018-08-28T18:43:44.206Z,48.50
2018-08-28T18:46:15.882Z,48.60
2018-08-28T18:48:47.618Z,48.70
2018-08-28T18:51:19.281Z,49.40
2018-08-28T18:53:51.061Z,49.20
2018-08-28T18:56:22.902Z,49.20
2018-08-28T18:58:54.573Z,49.40
2018-08-28T19:01:26.242Z,49.40
2018-08-28T19:03:58.070Z,49.50
2018-08-28T19:06:29.755Z,49.90
2018-08-28T19:09:01.543Z,50.20
2018-08-28T19:11:33.157Z,50.20
2018-08-28T19:14:05.033Z,49.90
2018-08-28T19:16:36.814Z,49.50
2018-08-28T19:19:10.029Z,49.20
2018-08-28T19:21:41.921Z,48.90
2018-08-28T19:24:13.831Z,49.30
2018-08-28T19:26:45.441Z,49.50
2018-08-28T19:29:17.222Z,49.80
2018-08-28T19:31:48.996Z,50.40
2018-08-28T19:34:20.712Z,50.70
2018-08-28T19:36:52.514Z,50.60
2018-08-28T19:39:24.144Z,50.60
2018-08-28T19:41:55.889Z,50.80
2018-08-28T19:44:27.754Z,51.00
2018-08-28T19:46:59.425Z,51.40
2018-08-28T19:49:31.190Z,51.60
2018-08-28T19:52:02.837Z,51.50
2018-08-28T19:54:34.701Z,51.30
2018-08-28T19:57:06.719Z,51.20
2018-08-28T19:59:38.396Z,51.40
2018-08-28T20:02:10.265Z,51.50
2018-08-28T20:04:42.048Z,51.60
2018-08-28T20:07:13.757Z,51.70
2018-08-28T20:09:45.497Z,52.00
2018-08-28T20:12:17.122Z,52.10
2018-08-28T20:14:48.862Z,52.10
2018-08-28T20:17:20.696Z,52.50
2018-08-28T20:19:52.505Z,52.90
2018-08-28T20:22:24.337Z,52.70
2018-08-28T20:24:56.116Z,52.80
2018-08-28T20:27:27.884Z,52.50
2018-08-28T20:29:59.724Z,53.00
2018-08-28T20:32:31.479Z,53.70
2018-08-28T20:35:03.265Z,54.90
2018-08-28T20:37:34.999Z,55.20
2018-08-28T20:40:07.100Z,55.00
2018-08-28T20:42:38.745Z,54.80
2018-08-28T20:45:10.680Z,54.60
2018-08-28T20:47:42.592Z,54.50
2018-08-28T20:50:14.386Z,54.30
2018-08-28T20:52:46.265Z,54.40
2018-08-28T20:55:18.074Z,54.60
2018-08-28T20:57:49.836Z,55.00
2018-08-28T21:00:21.461Z,55.30
2018-08-28T21:02:53.125Z,55.40
2018-08-28T21:05:28.197Z,55.60
2018-08-28T21:08:01.155Z,55.50
2018-08-28T21:10:33.085Z,55.80
2018-08-28T21:13:05.093Z,56.10
2018-08-28T21:15:36.933Z,56.00
2018-08-28T21:18:08.870Z,56.30
2018-08-28T21:20:40.540Z,56.30
2018-08-28T21:23:12.322Z,56.60
2018-08-28T21:25:44.053Z,56.90
2018-08-28T21:28:15.732Z,57.20
2018-08-28T21:30:47.600Z,57.10
2018-08-28T21:33:19.639Z,57.10
2018-08-28T21:35:51.611Z,57.10
2018-08-28T21:38:23.454Z,57.30
2018-08-28T21:40:55.208Z,57.50
2018-08-28T21:43:26.972Z,57.70
2018-08-28T21:45:58.778Z,57.70
2018-08-28T21:48:30.415Z,57.60
2018-08-28T21:51:02.251Z,57.80
2018-08-28T21:53:34.161Z,57.90
2018-08-28T21:56:05.894Z,58.50
2018-08-28T21:58:37.620Z,58.90
2018-08-28T22:01:12.435Z,58.90
2018-08-28T22:03:44.321Z,59.10
2018-08-28T22:06:21.064Z,59.20
2018-08-28T22:08:52.762Z,59.30
2018-08-28T22:11:24.636Z,59.60
2018-08-28T22:13:56.382Z,59.50
2018-08-28T22:16:27.946Z,59.40
2018-08-28T22:18:59.886Z,59.40
2018-08-28T22:21:31.667Z,59.50
2018-08-28T22:24:03.408Z,59.80
2018-08-28T22:26:35.321Z,60.00
2018-08-28T22:29:07.082Z,60.00
2018-08-28T22:31:38.821Z,59.80
2018-08-28T22:34:10.748Z,59.60
2018-08-28T22:36:42.553Z,60.00
2018-08-28T22:39:14.202Z,60.10
2018-08-28T22:41:46.144Z,60.00
2018-08-28T22:44:17.789Z,59.50
2018-08-28T22:46:49.473Z,59.40
2018-08-28T22:49:21.254Z,59.60
2018-08-28T22:51:52.968Z,59.60
2018-08-28T22:54:24.741Z,59.60
2018-08-28T22:56:56.532Z,59.90
2018-08-28T22:59:28.289Z,60.40
2018-08-28T23:02:00.029Z,60.20
2018-08-28T23:04:32.012Z,60.90
2018-08-28T23:07:03.885Z,61.10
2018-08-28T23:09:35.510Z,61.10
2018-08-28T23:12:07.263Z,60.60
2018-08-28T23:14:39.000Z,60.40
2018-08-28T23:17:10.792Z,60.50
2018-08-28T23:19:42.622Z,61.00
2018-08-28T23:22:14.401Z,61.10
2018-08-28T23:24:46.058Z,61.30
2018-08-28T23:27:17.993Z,61.10
2018-08-28T23:29:49.762Z,60.50
2018-08-28T23:32:21.537Z,60.30
2018-08-28T23:34:53.276Z,60.80
2018-08-28T23:37:25.028Z,60.70
2018-08-28T23:39:56.750Z,61.00
2018-08-28T23:42:28.762Z,61.10
2018-08-28T23:45:00.514Z,61.00
2018-08-28T23:47:32.288Z,60.80
2018-08-28T23:50:04.052Z,60.60
2018-08-28T23:52:35.897Z,61.10
2018-08-28T23:55:07.753Z,61.70
2018-08-28T23:57:39.522Z,61.70
